Hofa Park, Wisconsin
Current Conditions -  °F | °C
As of 5:53 PM on Wednesday 22 Oct 2014 (Local Time) from KGRB Reporting Station
Clear Clear  
Wind Chill: 43°   Ceiling: Unl
Heat Index: 47°   Visibility: 10mi
Dew Point: 40°   Wind: 8mph
Humidity: 77%   Direction: 110°ESE
Pressure: 30.26"   Gusts: NA
Location:  44.5116°N, 88.3076°W
Report Text: KGRB 222253Z 11007KT 10SM CLR 08/04 A3026 RMK AO2 SLP255 T00830044
Loading
Personal Weather Stations






























Interactive Weather Map
Tropical Storm Tracking
New forecast layout! Learn more

10-Day Weather Forecast

Advertisements
Track Severe Weather on mobile